sensor_id;sensor_type;location;lat;lon;timestamp;P1;durP1;ratioP1;P2;durP2;ratioP2
11139;SDS011;5624;49.388;11.350;2023-05-02T00:00:37;15.57;;;11.40;;
11139;SDS011;5624;49.388;11.350;2023-05-02T00:03:03;15.13;;;12.33;;
11139;SDS011;5624;49.388;11.350;2023-05-02T00:05:29;13.23;;;11.17;;
11139;SDS011;5624;49.388;11.350;2023-05-02T00:07:55;14.20;;;11.10;;
11139;SDS011;5624;49.388;11.350;2023-05-02T00:10:20;15.03;;;13.53;;
11139;SDS011;5624;49.388;11.350;2023-05-02T00:12:46;16.10;;;14.40;;
11139;SDS011;5624;49.388;11.350;2023-05-02T00:15:12;14.43;;;11.47;;
11139;SDS011;5624;49.388;11.350;2023-05-02T00:17:41;15.30;;;12.07;;
11139;SDS011;5624;49.388;11.350;2023-05-02T00:20:08;16.20;;;14.13;;
11139;SDS011;5624;49.388;11.350;2023-05-02T00:22:34;14.43;;;11.73;;
11139;SDS011;5624;49.388;11.350;2023-05-02T00:25:00;13.37;;;11.03;;
11139;SDS011;5624;49.388;11.350;2023-05-02T00:27:26;15.10;;;11.67;;
11139;SDS011;5624;49.388;11.350;2023-05-02T00:29:53;17.87;;;12.87;;
11139;SDS011;5624;49.388;11.350;2023-05-02T00:32:19;16.57;;;11.37;;
11139;SDS011;5624;49.388;11.350;2023-05-02T00:34:45;14.90;;;11.87;;
11139;SDS011;5624;49.388;11.350;2023-05-02T00:37:10;16.67;;;12.03;;
11139;SDS011;5624;49.388;11.350;2023-05-02T00:39:37;14.17;;;11.33;;
11139;SDS011;5624;49.388;11.350;2023-05-02T00:42:02;15.37;;;12.70;;
11139;SDS011;5624;49.388;11.350;2023-05-02T00:44:28;15.63;;;11.67;;
11139;SDS011;5624;49.388;11.350;2023-05-02T00:46:54;18.43;;;16.13;;
11139;SDS011;5624;49.388;11.350;2023-05-02T00:49:20;19.40;;;16.23;;
11139;SDS011;5624;49.388;11.350;2023-05-02T00:51:46;17.20;;;15.43;;
11139;SDS011;5624;49.388;11.350;2023-05-02T00:54:12;19.67;;;16.93;;
11139;SDS011;5624;49.388;11.350;2023-05-02T00:56:38;19.23;;;17.07;;
11139;SDS011;5624;49.388;11.350;2023-05-02T00:59:04;19.70;;;16.60;;
11139;SDS011;5624;49.388;11.350;2023-05-02T01:01:43;19.60;;;14.03;;
11139;SDS011;5624;49.388;11.350;2023-05-02T01:04:25;17.70;;;14.63;;
11139;SDS011;5624;49.388;11.350;2023-05-02T01:07:29;18.03;;;13.43;;
11139;SDS011;5624;49.388;11.350;2023-05-02T01:13:22;18.87;;;13.37;;
11139;SDS011;5624;49.388;11.350;2023-05-02T01:15:52;18.70;;;13.10;;
11139;SDS011;5624;49.388;11.350;2023-05-02T01:18:22;18.77;;;16.50;;
11139;SDS011;5624;49.388;11.350;2023-05-02T01:20:59;20.80;;;18.60;;
11139;SDS011;5624;49.388;11.350;2023-05-02T01:31:25;19.53;;;14.03;;
11139;SDS011;5624;49.388;11.350;2023-05-02T01:34:03;20.00;;;13.13;;
11139;SDS011;5624;49.388;11.350;2023-05-02T01:36:33;20.80;;;15.33;;
11139;SDS011;5624;49.388;11.350;2023-05-02T01:39:01;18.30;;;12.70;;
11139;SDS011;5624;49.388;11.350;2023-05-02T01:41:29;19.47;;;13.37;;
11139;SDS011;5624;49.388;11.350;2023-05-02T01:43:56;17.27;;;13.73;;
11139;SDS011;5624;49.388;11.350;2023-05-02T01:46:28;19.27;;;13.43;;
11139;SDS011;5624;49.388;11.350;2023-05-02T01:48:56;21.10;;;13.80;;
11139;SDS011;5624;49.388;11.350;2023-05-02T01:51:35;19.50;;;17.40;;
11139;SDS011;5624;49.388;11.350;2023-05-02T01:54:07;19.37;;;17.37;;
11139;SDS011;5624;49.388;11.350;2023-05-02T01:56:34;17.13;;;12.93;;
11139;SDS011;5624;49.388;11.350;2023-05-02T01:59:07;18.80;;;14.33;;
11139;SDS011;5624;49.388;11.350;2023-05-02T02:01:43;16.87;;;13.83;;
11139;SDS011;5624;49.388;11.350;2023-05-02T02:04:10;19.10;;;13.80;;
11139;SDS011;5624;49.388;11.350;2023-05-02T02:06:37;21.37;;;15.13;;
11139;SDS011;5624;49.388;11.350;2023-05-02T02:09:04;18.97;;;13.50;;
11139;SDS011;5624;49.388;11.350;2023-05-02T02:11:34;20.07;;;13.63;;
11139;SDS011;5624;49.388;11.350;2023-05-02T02:14:21;22.07;;;13.50;;
11139;SDS011;5624;49.388;11.350;2023-05-02T02:16:50;17.67;;;14.00;;
11139;SDS011;5624;49.388;11.350;2023-05-02T02:19:19;20.67;;;15.10;;
11139;SDS011;5624;49.388;11.350;2023-05-02T02:21:47;17.30;;;12.90;;
11139;SDS011;5624;49.388;11.350;2023-05-02T02:24:13;22.83;;;14.00;;
11139;SDS011;5624;49.388;11.350;2023-05-02T02:26:41;18.33;;;13.20;;
11139;SDS011;5624;49.388;11.350;2023-05-02T02:29:07;19.13;;;13.03;;
11139;SDS011;5624;49.388;11.350;2023-05-02T02:31:33;18.20;;;13.00;;
11139;SDS011;5624;49.388;11.350;2023-05-02T02:34:00;20.47;;;14.87;;
11139;SDS011;5624;49.388;11.350;2023-05-02T02:41:38;18.63;;;14.30;;
11139;SDS011;5624;49.388;11.350;2023-05-02T02:52:19;21.07;;;14.97;;
11139;SDS011;5624;49.388;11.350;2023-05-02T02:54:56;19.53;;;14.83;;
11139;SDS011;5624;49.388;11.350;2023-05-02T02:57:36;20.60;;;15.27;;
11139;SDS011;5624;49.388;11.350;2023-05-02T03:00:12;23.47;;;16.57;;
11139;SDS011;5624;49.388;11.350;2023-05-02T03:02:41;19.97;;;15.97;;
11139;SDS011;5624;49.388;11.350;2023-05-02T03:05:09;22.77;;;15.97;;
11139;SDS011;5624;49.388;11.350;2023-05-02T03:07:35;21.50;;;16.73;;
11139;SDS011;5624;49.388;11.350;2023-05-02T03:10:01;23.03;;;17.40;;
11139;SDS011;5624;49.388;11.350;2023-05-02T03:12:28;19.20;;;15.20;;
11139;SDS011;5624;49.388;11.350;2023-05-02T03:14:55;22.53;;;17.23;;
11139;SDS011;5624;49.388;11.350;2023-05-02T03:17:32;20.47;;;15.73;;
11139;SDS011;5624;49.388;11.350;2023-05-02T03:19:57;23.43;;;16.13;;
11139;SDS011;5624;49.388;11.350;2023-05-02T03:22:23;19.93;;;15.43;;
11139;SDS011;5624;49.388;11.350;2023-05-02T03:24:48;20.23;;;15.97;;
11139;SDS011;5624;49.388;11.350;2023-05-02T03:27:14;22.67;;;15.93;;
11139;SDS011;5624;49.388;11.350;2023-05-02T03:29:39;19.97;;;14.43;;
11139;SDS011;5624;49.388;11.350;2023-05-02T03:32:05;22.10;;;15.67;;
11139;SDS011;5624;49.388;11.350;2023-05-02T03:34:31;22.73;;;16.10;;
11139;SDS011;5624;49.388;11.350;2023-05-02T03:36:56;22.90;;;16.27;;
11139;SDS011;5624;49.388;11.350;2023-05-02T03:39:22;23.83;;;20.13;;
11139;SDS011;5624;49.388;11.350;2023-05-02T03:41:47;22.33;;;16.63;;
11139;SDS011;5624;49.388;11.350;2023-05-02T03:44:13;21.37;;;15.43;;
11139;SDS011;5624;49.388;11.350;2023-05-02T03:46:38;19.77;;;15.70;;
11139;SDS011;5624;49.388;11.350;2023-05-02T03:49:04;23.50;;;16.50;;
11139;SDS011;5624;49.388;11.350;2023-05-02T03:51:30;20.20;;;15.63;;
11139;SDS011;5624;49.388;11.350;2023-05-02T03:53:57;22.27;;;17.63;;
11139;SDS011;5624;49.388;11.350;2023-05-02T03:56:25;23.23;;;17.00;;
11139;SDS011;5624;49.388;11.350;2023-05-02T03:58:51;24.67;;;17.53;;
11139;SDS011;5624;49.388;11.350;2023-05-02T04:01:16;21.73;;;17.00;;
11139;SDS011;5624;49.388;11.350;2023-05-02T04:03:42;23.60;;;16.20;;
11139;SDS011;5624;49.388;11.350;2023-05-02T04:06:07;21.73;;;17.00;;
11139;SDS011;5624;49.388;11.350;2023-05-02T04:08:33;22.93;;;17.10;;
11139;SDS011;5624;49.388;11.350;2023-05-02T04:10:59;23.37;;;17.40;;
11139;SDS011;5624;49.388;11.350;2023-05-02T04:13:24;22.03;;;17.70;;
11139;SDS011;5624;49.388;11.350;2023-05-02T04:15:50;24.07;;;17.27;;
11139;SDS011;5624;49.388;11.350;2023-05-02T04:18:16;25.63;;;18.57;;
11139;SDS011;5624;49.388;11.350;2023-05-02T04:20:41;23.37;;;17.83;;
11139;SDS011;5624;49.388;11.350;2023-05-02T04:23:08;23.97;;;16.90;;
11139;SDS011;5624;49.388;11.350;2023-05-02T04:25:34;24.27;;;18.43;;
11139;SDS011;5624;49.388;11.350;2023-05-02T04:27:59;24.50;;;19.00;;
11139;SDS011;5624;49.388;11.350;2023-05-02T04:30:25;26.97;;;19.37;;
11139;SDS011;5624;49.388;11.350;2023-05-02T04:32:51;25.07;;;18.97;;
11139;SDS011;5624;49.388;11.350;2023-05-02T04:35:17;24.20;;;19.10;;
11139;SDS011;5624;49.388;11.350;2023-05-02T04:37:43;26.63;;;18.73;;
11139;SDS011;5624;49.388;11.350;2023-05-02T04:40:08;25.70;;;19.10;;
11139;SDS011;5624;49.388;11.350;2023-05-02T04:42:35;24.70;;;19.50;;
11139;SDS011;5624;49.388;11.350;2023-05-02T04:45:01;25.77;;;19.33;;
11139;SDS011;5624;49.388;11.350;2023-05-02T04:47:26;25.70;;;18.53;;
11139;SDS011;5624;49.388;11.350;2023-05-02T04:49:52;22.30;;;18.13;;
11139;SDS011;5624;49.388;11.350;2023-05-02T04:52:17;23.37;;;17.27;;
11139;SDS011;5624;49.388;11.350;2023-05-02T04:54:43;21.87;;;16.97;;
11139;SDS011;5624;49.388;11.350;2023-05-02T04:57:08;19.40;;;16.03;;
11139;SDS011;5624;49.388;11.350;2023-05-02T04:59:34;21.60;;;15.30;;
11139;SDS011;5624;49.388;11.350;2023-05-02T05:02:00;22.43;;;16.57;;
11139;SDS011;5624;49.388;11.350;2023-05-02T05:04:27;19.70;;;16.63;;
11139;SDS011;5624;49.388;11.350;2023-05-02T05:06:52;15.60;;;13.77;;
11139;SDS011;5624;49.388;11.350;2023-05-02T05:09:18;18.67;;;14.43;;
11139;SDS011;5624;49.388;11.350;2023-05-02T05:11:44;15.80;;;13.10;;
11139;SDS011;5624;49.388;11.350;2023-05-02T05:14:10;16.70;;;14.23;;
11139;SDS011;5624;49.388;11.350;2023-05-02T05:16:36;16.60;;;13.33;;
11139;SDS011;5624;49.388;11.350;2023-05-02T05:19:02;16.33;;;14.23;;
11139;SDS011;5624;49.388;11.350;2023-05-02T05:21:28;15.73;;;12.90;;
11139;SDS011;5624;49.388;11.350;2023-05-02T05:23:53;13.80;;;12.23;;
11139;SDS011;5624;49.388;11.350;2023-05-02T05:26:19;17.27;;;14.43;;
11139;SDS011;5624;49.388;11.350;2023-05-02T05:28:45;15.03;;;12.53;;
11139;SDS011;5624;49.388;11.350;2023-05-02T05:31:11;16.77;;;13.00;;
11139;SDS011;5624;49.388;11.350;2023-05-02T05:33:41;14.53;;;12.70;;
11139;SDS011;5624;49.388;11.350;2023-05-02T05:36:07;16.30;;;13.57;;
11139;SDS011;5624;49.388;11.350;2023-05-02T05:38:34;14.33;;;12.37;;
11139;SDS011;5624;49.388;11.350;2023-05-02T05:41:00;16.13;;;13.03;;
11139;SDS011;5624;49.388;11.350;2023-05-02T05:43:26;20.27;;;16.73;;
11139;SDS011;5624;49.388;11.350;2023-05-02T05:45:52;15.27;;;12.10;;
11139;SDS011;5624;49.388;11.350;2023-05-02T05:48:18;14.13;;;12.60;;
11139;SDS011;5624;49.388;11.350;2023-05-02T05:50:44;14.00;;;12.47;;
11139;SDS011;5624;49.388;11.350;2023-05-02T05:53:10;15.13;;;11.93;;
11139;SDS011;5624;49.388;11.350;2023-05-02T05:55:36;16.17;;;13.17;;
11139;SDS011;5624;49.388;11.350;2023-05-02T05:58:02;14.43;;;11.83;;
11139;SDS011;5624;49.388;11.350;2023-05-02T06:00:28;15.80;;;12.73;;
11139;SDS011;5624;49.388;11.350;2023-05-02T06:02:54;13.50;;;11.83;;
11139;SDS011;5624;49.388;11.350;2023-05-02T06:05:20;13.30;;;11.90;;
11139;SDS011;5624;49.388;11.350;2023-05-02T06:07:45;13.63;;;12.20;;
11139;SDS011;5624;49.388;11.350;2023-05-02T06:10:11;12.60;;;11.27;;
11139;SDS011;5624;49.388;11.350;2023-05-02T06:12:36;13.90;;;12.37;;
11139;SDS011;5624;49.388;11.350;2023-05-02T06:15:02;13.77;;;12.33;;
11139;SDS011;5624;49.388;11.350;2023-05-02T06:17:28;13.40;;;12.00;;
11139;SDS011;5624;49.388;11.350;2023-05-02T06:19:53;14.97;;;12.13;;
11139;SDS011;5624;49.388;11.350;2023-05-02T06:22:19;14.13;;;12.23;;
11139;SDS011;5624;49.388;11.350;2023-05-02T06:24:45;13.40;;;12.00;;
11139;SDS011;5624;49.388;11.350;2023-05-02T06:27:10;14.00;;;11.90;;
11139;SDS011;5624;49.388;11.350;2023-05-02T06:29:36;12.70;;;11.40;;
11139;SDS011;5624;49.388;11.350;2023-05-02T06:32:01;13.37;;;11.70;;
11139;SDS011;5624;49.388;11.350;2023-05-02T06:34:30;14.03;;;12.67;;
11139;SDS011;5624;49.388;11.350;2023-05-02T06:36:56;13.00;;;11.60;;
11139;SDS011;5624;49.388;11.350;2023-05-02T06:39:22;13.83;;;11.70;;
11139;SDS011;5624;49.388;11.350;2023-05-02T06:41:48;14.43;;;12.37;;
11139;SDS011;5624;49.388;11.350;2023-05-02T06:44:13;13.47;;;12.07;;
11139;SDS011;5624;49.388;11.350;2023-05-02T06:46:39;13.77;;;11.33;;
11139;SDS011;5624;49.388;11.350;2023-05-02T06:49:05;12.83;;;11.37;;
11139;SDS011;5624;49.388;11.350;2023-05-02T06:51:30;12.73;;;11.07;;
11139;SDS011;5624;49.388;11.350;2023-05-02T06:53:56;12.70;;;11.37;;
11139;SDS011;5624;49.388;11.350;2023-05-02T06:56:23;12.70;;;11.40;;
11139;SDS011;5624;49.388;11.350;2023-05-02T06:58:52;11.90;;;10.70;;
11139;SDS011;5624;49.388;11.350;2023-05-02T07:01:17;11.30;;;10.10;;
11139;SDS011;5624;49.388;11.350;2023-05-02T07:03:43;11.87;;;10.67;;
11139;SDS011;5624;49.388;11.350;2023-05-02T07:06:09;14.33;;;10.27;;
11139;SDS011;5624;49.388;11.350;2023-05-02T07:08:35;12.80;;;9.80;;
11139;SDS011;5624;49.388;11.350;2023-05-02T07:11:01;10.70;;;9.60;;
11139;SDS011;5624;49.388;11.350;2023-05-02T07:13:27;12.27;;;10.73;;
11139;SDS011;5624;49.388;11.350;2023-05-02T07:15:53;11.60;;;9.93;;
11139;SDS011;5624;49.388;11.350;2023-05-02T07:18:19;11.77;;;10.57;;
11139;SDS011;5624;49.388;11.350;2023-05-02T07:20:45;11.50;;;10.03;;
11139;SDS011;5624;49.388;11.350;2023-05-02T07:23:11;11.17;;;10.00;;
11139;SDS011;5624;49.388;11.350;2023-05-02T07:25:36;10.07;;;9.07;;
11139;SDS011;5624;49.388;11.350;2023-05-02T07:28:03;12.13;;;9.70;;
11139;SDS011;5624;49.388;11.350;2023-05-02T07:30:29;10.53;;;9.13;;
11139;SDS011;5624;49.388;11.350;2023-05-02T07:32:55;12.00;;;9.93;;
11139;SDS011;5624;49.388;11.350;2023-05-02T07:35:21;11.03;;;9.10;;
11139;SDS011;5624;49.388;11.350;2023-05-02T07:37:46;10.40;;;8.60;;
11139;SDS011;5624;49.388;11.350;2023-05-02T07:40:12;11.37;;;8.90;;
11139;SDS011;5624;49.388;11.350;2023-05-02T07:42:38;11.83;;;9.07;;
11139;SDS011;5624;49.388;11.350;2023-05-02T07:45:06;12.80;;;9.73;;
11139;SDS011;5624;49.388;11.350;2023-05-02T07:47:32;12.33;;;8.90;;
11139;SDS011;5624;49.388;11.350;2023-05-02T07:49:57;11.20;;;9.67;;
11139;SDS011;5624;49.388;11.350;2023-05-02T07:52:23;10.13;;;8.67;;
11139;SDS011;5624;49.388;11.350;2023-05-02T07:54:49;13.23;;;10.27;;
11139;SDS011;5624;49.388;11.350;2023-05-02T07:57:16;12.87;;;10.20;;
11139;SDS011;5624;49.388;11.350;2023-05-02T07:59:42;12.07;;;9.40;;
11139;SDS011;5624;49.388;11.350;2023-05-02T08:02:07;12.80;;;9.77;;
11139;SDS011;5624;49.388;11.350;2023-05-02T08:04:33;11.37;;;9.73;;
11139;SDS011;5624;49.388;11.350;2023-05-02T08:06:59;13.30;;;8.97;;
11139;SDS011;5624;49.388;11.350;2023-05-02T08:09:25;10.37;;;8.97;;
11139;SDS011;5624;49.388;11.350;2023-05-02T08:11:50;12.57;;;9.90;;
11139;SDS011;5624;49.388;11.350;2023-05-02T08:14:16;11.53;;;9.50;;
11139;SDS011;5624;49.388;11.350;2023-05-02T08:16:42;13.13;;;10.23;;
11139;SDS011;5624;49.388;11.350;2023-05-02T08:19:08;10.73;;;9.63;;
11139;SDS011;5624;49.388;11.350;2023-05-02T08:21:34;12.57;;;10.13;;
11139;SDS011;5624;49.388;11.350;2023-05-02T08:24:00;13.23;;;10.40;;
11139;SDS011;5624;49.388;11.350;2023-05-02T08:26:26;14.90;;;10.20;;
11139;SDS011;5624;49.388;11.350;2023-05-02T08:28:52;11.80;;;9.43;;
11139;SDS011;5624;49.388;11.350;2023-05-02T08:31:18;12.93;;;10.57;;
11139;SDS011;5624;49.388;11.350;2023-05-02T08:33:44;12.73;;;10.47;;
11139;SDS011;5624;49.388;11.350;2023-05-02T08:36:13;11.57;;;10.30;;
11139;SDS011;5624;49.388;11.350;2023-05-02T08:38:40;11.77;;;9.73;;
11139;SDS011;5624;49.388;11.350;2023-05-02T08:41:13;10.33;;;8.77;;
11139;SDS011;5624;49.388;11.350;2023-05-02T08:43:41;9.87;;;8.43;;
11139;SDS011;5624;49.388;11.350;2023-05-02T08:46:09;9.63;;;8.53;;
11139;SDS011;5624;49.388;11.350;2023-05-02T08:48:36;12.43;;;10.70;;
11139;SDS011;5624;49.388;11.350;2023-05-02T08:51:04;12.27;;;8.27;;
11139;SDS011;5624;49.388;11.350;2023-05-02T08:53:37;11.47;;;10.27;;
11139;SDS011;5624;49.388;11.350;2023-05-02T08:56:05;18.47;;;16.33;;
11139;SDS011;5624;49.388;11.350;2023-05-02T08:58:31;9.13;;;8.23;;
11139;SDS011;5624;49.388;11.350;2023-05-02T09:01:01;9.50;;;7.80;;
11139;SDS011;5624;49.388;11.350;2023-05-02T09:03:36;8.82;;;7.80;;
11139;SDS011;5624;49.388;11.350;2023-05-02T09:08:32;8.57;;;7.63;;
11139;SDS011;5624;49.388;11.350;2023-05-02T09:10:58;9.10;;;7.15;;
11139;SDS011;5624;49.388;11.350;2023-05-02T09:13:35;8.50;;;7.05;;
11139;SDS011;5624;49.388;11.350;2023-05-02T09:21:13;7.55;;;6.70;;
11139;SDS011;5624;49.388;11.350;2023-05-02T09:26:10;10.77;;;7.15;;
11139;SDS011;5624;49.388;11.350;2023-05-02T09:28:55;8.75;;;7.60;;
11139;SDS011;5624;49.388;11.350;2023-05-02T09:31:23;9.75;;;8.13;;
11139;SDS011;5624;49.388;11.350;2023-05-02T09:34:16;8.85;;;7.80;;
11139;SDS011;5624;49.388;11.350;2023-05-02T09:36:43;9.43;;;8.30;;
11139;SDS011;5624;49.388;11.350;2023-05-02T09:39:19;9.25;;;7.20;;
11139;SDS011;5624;49.388;11.350;2023-05-02T09:41:48;8.27;;;7.47;;
11139;SDS011;5624;49.388;11.350;2023-05-02T09:44:15;9.57;;;7.80;;
11139;SDS011;5624;49.388;11.350;2023-05-02T09:46:52;8.13;;;7.32;;
11139;SDS011;5624;49.388;11.350;2023-05-02T09:49:18;9.40;;;8.38;;
11139;SDS011;5624;49.388;11.350;2023-05-02T09:52:12;10.55;;;7.70;;
11139;SDS011;5624;49.388;11.350;2023-05-02T09:54:42;12.60;;;8.15;;
11139;SDS011;5624;49.388;11.350;2023-05-02T09:57:10;8.45;;;7.55;;
11139;SDS011;5624;49.388;11.350;2023-05-02T09:59:36;8.80;;;7.65;;
11139;SDS011;5624;49.388;11.350;2023-05-02T10:02:03;10.02;;;7.07;;
11139;SDS011;5624;49.388;11.350;2023-05-02T10:04:32;7.38;;;6.35;;
11139;SDS011;5624;49.388;11.350;2023-05-02T10:06:58;9.07;;;7.57;;
11139;SDS011;5624;49.388;11.350;2023-05-02T10:09:25;8.40;;;7.60;;
11139;SDS011;5624;49.388;11.350;2023-05-02T10:11:52;7.45;;;6.72;;
11139;SDS011;5624;49.388;11.350;2023-05-02T10:14:20;7.68;;;6.97;;
11139;SDS011;5624;49.388;11.350;2023-05-02T10:19:56;6.60;;;5.55;;
11139;SDS011;5624;49.388;11.350;2023-05-02T10:22:32;7.13;;;6.43;;
11139;SDS011;5624;49.388;11.350;2023-05-02T10:24:58;7.95;;;6.22;;
11139;SDS011;5624;49.388;11.350;2023-05-02T10:27:28;8.13;;;6.38;;
11139;SDS011;5624;49.388;11.350;2023-05-02T10:29:55;6.47;;;5.70;;
11139;SDS011;5624;49.388;11.350;2023-05-02T10:32:22;6.47;;;5.80;;
11139;SDS011;5624;49.388;11.350;2023-05-02T10:34:53;8.63;;;6.60;;
11139;SDS011;5624;49.388;11.350;2023-05-02T10:37:20;6.90;;;5.90;;
11139;SDS011;5624;49.388;11.350;2023-05-02T10:39:50;6.35;;;5.75;;
11139;SDS011;5624;49.388;11.350;2023-05-02T10:42:16;7.45;;;5.65;;
11139;SDS011;5624;49.388;11.350;2023-05-02T10:44:44;7.38;;;6.35;;
11139;SDS011;5624;49.388;11.350;2023-05-02T10:47:19;6.32;;;5.55;;
11139;SDS011;5624;49.388;11.350;2023-05-02T10:49:52;6.75;;;5.20;;
11139;SDS011;5624;49.388;11.350;2023-05-02T10:52:32;7.25;;;6.05;;
11139;SDS011;5624;49.388;11.350;2023-05-02T11:00:31;6.35;;;4.93;;
11139;SDS011;5624;49.388;11.350;2023-05-02T11:02:58;5.00;;;4.40;;
11139;SDS011;5624;49.388;11.350;2023-05-02T11:05:24;7.57;;;5.25;;
11139;SDS011;5624;49.388;11.350;2023-05-02T11:10:41;6.60;;;4.68;;
11139;SDS011;5624;49.388;11.350;2023-05-02T11:13:09;6.68;;;4.60;;
11139;SDS011;5624;49.388;11.350;2023-05-02T11:20:36;6.05;;;4.20;;
11139;SDS011;5624;49.388;11.350;2023-05-02T11:25:41;6.30;;;4.18;;
11139;SDS011;5624;49.388;11.350;2023-05-02T11:28:38;6.88;;;4.03;;
11139;SDS011;5624;49.388;11.350;2023-05-02T11:33:54;5.43;;;3.88;;
11139;SDS011;5624;49.388;11.350;2023-05-02T11:36:30;4.75;;;3.70;;
11139;SDS011;5624;49.388;11.350;2023-05-02T11:38:57;5.28;;;3.47;;
11139;SDS011;5624;49.388;11.350;2023-05-02T11:41:39;4.68;;;3.97;;
11139;SDS011;5624;49.388;11.350;2023-05-02T11:44:06;4.05;;;3.50;;
11139;SDS011;5624;49.388;11.350;2023-05-02T11:46:32;6.55;;;3.80;;
11139;SDS011;5624;49.388;11.350;2023-05-02T11:49:01;4.70;;;3.42;;
11139;SDS011;5624;49.388;11.350;2023-05-02T11:51:26;5.97;;;4.07;;
11139;SDS011;5624;49.388;11.350;2023-05-02T11:53:52;6.45;;;4.63;;
11139;SDS011;5624;49.388;11.350;2023-05-02T11:56:22;6.25;;;4.20;;
11139;SDS011;5624;49.388;11.350;2023-05-02T11:59:01;6.32;;;4.57;;
11139;SDS011;5624;49.388;11.350;2023-05-02T12:01:27;6.40;;;4.25;;
11139;SDS011;5624;49.388;11.350;2023-05-02T12:04:03;5.57;;;4.30;;
11139;SDS011;5624;49.388;11.350;2023-05-02T12:06:31;6.07;;;4.53;;
11139;SDS011;5624;49.388;11.350;2023-05-02T12:09:13;5.07;;;4.38;;
11139;SDS011;5624;49.388;11.350;2023-05-02T12:11:43;7.82;;;4.97;;
11139;SDS011;5624;49.388;11.350;2023-05-02T12:14:09;6.68;;;4.80;;
11139;SDS011;5624;49.388;11.350;2023-05-02T12:16:35;5.38;;;4.50;;
11139;SDS011;5624;49.388;11.350;2023-05-02T12:19:05;6.80;;;5.40;;
11139;SDS011;5624;49.388;11.350;2023-05-02T12:21:31;7.47;;;4.97;;
11139;SDS011;5624;49.388;11.350;2023-05-02T12:23:59;5.05;;;4.55;;
11139;SDS011;5624;49.388;11.350;2023-05-02T12:26:27;8.23;;;4.85;;
11139;SDS011;5624;49.388;11.350;2023-05-02T12:28:57;6.72;;;4.00;;
11139;SDS011;5624;49.388;11.350;2023-05-02T12:31:23;5.43;;;3.80;;
11139;SDS011;5624;49.388;11.350;2023-05-02T12:33:49;5.80;;;4.68;;
11139;SDS011;5624;49.388;11.350;2023-05-02T12:36:19;14.60;;;9.18;;
11139;SDS011;5624;49.388;11.350;2023-05-02T12:38:52;12.00;;;7.05;;
11139;SDS011;5624;49.388;11.350;2023-05-02T12:41:34;5.22;;;4.30;;
11139;SDS011;5624;49.388;11.350;2023-05-02T12:44:01;7.93;;;6.20;;
11139;SDS011;5624;49.388;11.350;2023-05-02T12:46:28;8.65;;;7.68;;
11139;SDS011;5624;49.388;11.350;2023-05-02T12:49:06;10.93;;;9.18;;
11139;SDS011;5624;49.388;11.350;2023-05-02T12:51:37;10.50;;;8.27;;
11139;SDS011;5624;49.388;11.350;2023-05-02T12:54:03;6.63;;;5.28;;
11139;SDS011;5624;49.388;11.350;2023-05-02T12:56:29;11.35;;;9.30;;
11139;SDS011;5624;49.388;11.350;2023-05-02T12:59:02;9.45;;;7.95;;
11139;SDS011;5624;49.388;11.350;2023-05-02T13:01:29;7.53;;;5.25;;
11139;SDS011;5624;49.388;11.350;2023-05-02T13:03:57;6.88;;;5.22;;
11139;SDS011;5624;49.388;11.350;2023-05-02T13:06:23;6.50;;;5.40;;
11139;SDS011;5624;49.388;11.350;2023-05-02T13:08:48;5.97;;;4.63;;
11139;SDS011;5624;49.388;11.350;2023-05-02T13:11:14;5.72;;;3.97;;
11139;SDS011;5624;49.388;11.350;2023-05-02T13:13:39;7.85;;;5.68;;
11139;SDS011;5624;49.388;11.350;2023-05-02T13:16:05;8.82;;;6.95;;
11139;SDS011;5624;49.388;11.350;2023-05-02T13:18:32;8.70;;;4.95;;
11139;SDS011;5624;49.388;11.350;2023-05-02T13:20:57;5.22;;;4.13;;
11139;SDS011;5624;49.388;11.350;2023-05-02T13:23:23;5.55;;;4.47;;
11139;SDS011;5624;49.388;11.350;2023-05-02T13:25:48;4.47;;;3.85;;
11139;SDS011;5624;49.388;11.350;2023-05-02T13:28:14;7.10;;;4.10;;
11139;SDS011;5624;49.388;11.350;2023-05-02T13:30:40;6.10;;;3.50;;
11139;SDS011;5624;49.388;11.350;2023-05-02T13:33:06;4.93;;;3.20;;
11139;SDS011;5624;49.388;11.350;2023-05-02T13:35:31;5.57;;;3.10;;
11139;SDS011;5624;49.388;11.350;2023-05-02T13:37:57;5.40;;;2.70;;
11139;SDS011;5624;49.388;11.350;2023-05-02T13:40:22;6.93;;;2.78;;
11139;SDS011;5624;49.388;11.350;2023-05-02T13:42:48;3.88;;;1.92;;
11139;SDS011;5624;49.388;11.350;2023-05-02T13:45:13;5.45;;;2.40;;
11139;SDS011;5624;49.388;11.350;2023-05-02T13:47:41;7.20;;;2.30;;
11139;SDS011;5624;49.388;11.350;2023-05-02T13:50:06;5.57;;;2.50;;
11139;SDS011;5624;49.388;11.350;2023-05-02T13:52:32;6.78;;;3.15;;
11139;SDS011;5624;49.388;11.350;2023-05-02T13:54:58;6.50;;;3.83;;
11139;SDS011;5624;49.388;11.350;2023-05-02T13:57:24;4.95;;;3.65;;
11139;SDS011;5624;49.388;11.350;2023-05-02T13:59:49;4.00;;;3.08;;
11139;SDS011;5624;49.388;11.350;2023-05-02T14:02:16;3.58;;;3.28;;
11139;SDS011;5624;49.388;11.350;2023-05-02T14:04:41;4.07;;;3.15;;
11139;SDS011;5624;49.388;11.350;2023-05-02T14:07:07;5.43;;;3.53;;
11139;SDS011;5624;49.388;11.350;2023-05-02T14:09:32;6.22;;;4.10;;
11139;SDS011;5624;49.388;11.350;2023-05-02T14:11:58;5.50;;;3.50;;
11139;SDS011;5624;49.388;11.350;2023-05-02T14:14:24;5.45;;;3.30;;
11139;SDS011;5624;49.388;11.350;2023-05-02T14:16:50;4.40;;;3.75;;
11139;SDS011;5624;49.388;11.350;2023-05-02T14:19:16;4.63;;;4.00;;
11139;SDS011;5624;49.388;11.350;2023-05-02T14:21:42;4.78;;;3.75;;
11139;SDS011;5624;49.388;11.350;2023-05-02T14:24:07;6.72;;;4.53;;
11139;SDS011;5624;49.388;11.350;2023-05-02T14:26:33;6.40;;;4.70;;
11139;SDS011;5624;49.388;11.350;2023-05-02T14:28:59;6.03;;;4.22;;
11139;SDS011;5624;49.388;11.350;2023-05-02T14:31:25;4.90;;;4.05;;
11139;SDS011;5624;49.388;11.350;2023-05-02T14:33:51;5.25;;;4.15;;
11139;SDS011;5624;49.388;11.350;2023-05-02T14:36:16;5.45;;;4.20;;
11139;SDS011;5624;49.388;11.350;2023-05-02T14:38:42;4.60;;;4.10;;
11139;SDS011;5624;49.388;11.350;2023-05-02T14:41:08;6.25;;;4.07;;
11139;SDS011;5624;49.388;11.350;2023-05-02T14:43:34;5.93;;;4.22;;
11139;SDS011;5624;49.388;11.350;2023-05-02T14:46:00;5.00;;;3.65;;
11139;SDS011;5624;49.388;11.350;2023-05-02T14:48:26;6.40;;;4.43;;
11139;SDS011;5624;49.388;11.350;2023-05-02T14:50:52;6.90;;;4.32;;
11139;SDS011;5624;49.388;11.350;2023-05-02T14:53:19;5.93;;;4.32;;
11139;SDS011;5624;49.388;11.350;2023-05-02T14:55:45;5.72;;;3.83;;
11139;SDS011;5624;49.388;11.350;2023-05-02T14:58:10;6.10;;;3.63;;
11139;SDS011;5624;49.388;11.350;2023-05-02T15:00:36;4.90;;;3.40;;
11139;SDS011;5624;49.388;11.350;2023-05-02T15:03:03;6.65;;;3.75;;
11139;SDS011;5624;49.388;11.350;2023-05-02T15:05:32;4.40;;;3.63;;
11139;SDS011;5624;49.388;11.350;2023-05-02T15:07:58;5.95;;;3.60;;
11139;SDS011;5624;49.388;11.350;2023-05-02T15:10:23;4.85;;;4.10;;
11139;SDS011;5624;49.388;11.350;2023-05-02T15:12:49;3.70;;;2.88;;
11139;SDS011;5624;49.388;11.350;2023-05-02T15:15:18;4.68;;;2.92;;
11139;SDS011;5624;49.388;11.350;2023-05-02T15:17:48;4.63;;;3.00;;
11139;SDS011;5624;49.388;11.350;2023-05-02T15:20:15;2.95;;;2.33;;
11139;SDS011;5624;49.388;11.350;2023-05-02T15:22:40;5.15;;;3.40;;
11139;SDS011;5624;49.388;11.350;2023-05-02T15:25:06;3.55;;;2.38;;
11139;SDS011;5624;49.388;11.350;2023-05-02T15:27:32;3.72;;;2.55;;
11139;SDS011;5624;49.388;11.350;2023-05-02T15:29:58;2.85;;;2.25;;
11139;SDS011;5624;49.388;11.350;2023-05-02T15:32:23;2.53;;;2.10;;